Time,TemperatureF,DewpointF,PressureIn,WindDirection,WindDirectionDegrees,WindSpeedMPH,WindSpeedGustMPH,Humidity,HourlyPrecipIn,Conditions,Clouds,dailyrainin,SoftwareType,DateUTC
2013-05-15 00:01:00,49.2,37.2,29.66,WNW,284,4.0,7.0,63,0.00,,---,0.00,VWS V14.01,2013-05-15 06:01:00,
2013-05-15 00:11:00,49.6,36.7,29.66,WNW,284,0.0,7.0,61,0.00,,---,0.00,VWS V14.01,2013-05-15 06:11:00,
2013-05-15 00:21:00,49.8,37.3,29.65,WNW,284,0.0,0.0,62,0.00,,---,0.00,VWS V14.01,2013-05-15 06:21:00,
2013-05-15 00:31:00,49.8,36.9,29.65,WNW,284,0.0,0.0,61,0.00,,---,0.00,VWS V14.01,2013-05-15 06:31:00,
2013-05-15 00:41:00,50.1,37.2,29.65,WNW,284,0.0,0.0,61,0.00,,---,0.00,VWS V14.01,2013-05-15 06:41:00,
2013-05-15 00:51:00,49.7,37.6,29.65,WNW,284,0.0,0.0,63,0.00,,---,0.00,VWS V14.01,2013-05-15 06:51:00,
2013-05-15 01:01:00,49.4,37.3,29.65,WNW,284,0.0,7.0,63,0.00,,---,0.00,VWS V14.01,2013-05-15 07:01:00,
2013-05-15 01:11:00,47.4,37.0,29.67,WNW,284,0.0,5.0,67,0.00,,---,0.00,VWS V14.01,2013-05-15 07:11:00,
2013-05-15 01:21:00,47.8,37.0,29.64,WNW,284,0.0,0.0,66,0.00,,---,0.00,VWS V14.01,2013-05-15 07:21:00,
2013-05-15 01:31:00,48.2,37.0,29.64,WNW,284,0.0,3.0,65,0.00,,---,0.00,VWS V14.01,2013-05-15 07:31:00,
2013-05-15 01:41:00,48.5,37.7,29.64,WNW,284,0.0,0.0,66,0.00,,---,0.00,VWS V14.01,2013-05-15 07:41:00,
2013-05-15 01:51:00,48.3,37.5,29.63,WNW,284,0.0,0.0,66,0.00,,---,0.00,VWS V14.01,2013-05-15 07:51:00,
2013-05-15 02:01:00,45.9,37.0,29.65,WNW,284,0.0,0.0,71,0.00,,---,0.00,VWS V14.01,2013-05-15 08:01:00,
2013-05-15 02:11:00,45.9,37.0,29.67,WNW,284,2.0,6.0,71,0.00,,---,0.00,VWS V14.01,2013-05-15 08:11:00,
2013-05-15 02:21:00,46.3,36.7,29.67,WNW,285,0.0,5.0,69,0.00,,---,0.00,VWS V14.01,2013-05-15 08:21:00,
2013-05-15 02:31:00,45.6,36.4,29.66,WNW,285,0.0,0.0,70,0.00,,---,0.00,VWS V14.01,2013-05-15 08:31:00,
2013-05-15 02:41:00,44.9,36.4,29.66,WNW,285,6.0,6.0,72,0.00,,---,0.00,VWS V14.01,2013-05-15 08:41:00,
2013-05-15 02:51:00,45.6,36.0,29.65,WNW,285,0.0,6.0,69,0.00,,---,0.00,VWS V14.01,2013-05-15 08:51:00,
2013-05-15 03:01:00,44.3,35.9,29.68,WNW,284,0.0,0.0,72,0.00,,---,0.00,VWS V14.01,2013-05-15 09:01:00,
2013-05-15 03:11:00,43.6,35.5,29.71,WNW,285,0.0,0.0,73,0.00,,---,0.00,VWS V14.01,2013-05-15 09:11:00,
2013-05-15 03:21:00,44.5,36.0,29.71,WNW,284,0.0,1.0,72,0.00,,---,0.00,VWS V14.01,2013-05-15 09:21:00,
2013-05-15 03:31:00,44.7,35.9,29.70,NW,311,0.0,12.0,71,0.00,,---,0.00,VWS V14.01,2013-05-15 09:31:00,
2013-05-15 03:41:00,44.5,35.7,29.70,NNW,329,4.0,14.0,71,0.00,,---,0.00,VWS V14.01,2013-05-15 09:41:00,
2013-05-15 03:51:00,44.3,35.5,29.70,NNW,329,0.0,9.0,71,0.00,,---,0.00,VWS V14.01,2013-05-15 09:51:00,
2013-05-15 04:01:00,43.8,35.7,29.71,NNW,329,0.0,0.0,73,0.00,,---,0.00,VWS V14.01,2013-05-15 10:01:00,
2013-05-15 04:11:00,43.3,35.6,29.72,NNW,329,0.0,0.0,74,0.00,,---,0.00,VWS V14.01,2013-05-15 10:11:00,
2013-05-15 04:21:00,43.4,35.7,29.72,NNW,330,0.0,0.0,74,0.00,,---,0.00,VWS V14.01,2013-05-15 10:21:00,
2013-05-15 04:31:00,43.8,35.7,29.71,NNW,330,0.0,0.0,73,0.00,,---,0.00,VWS V14.01,2013-05-15 10:31:00,
2013-05-15 04:41:00,43.7,36.6,29.71,NNW,329,0.0,1.0,76,0.00,,---,0.00,VWS V14.01,2013-05-15 10:41:00,
2013-05-15 04:51:00,43.7,36.0,29.71,NNW,329,0.0,0.0,74,0.00,,---,0.00,VWS V14.01,2013-05-15 10:51:00,
2013-05-15 05:11:00,44.9,35.7,29.70,NNW,329,0.0,4.0,70,0.00,,---,0.00,VWS V14.01,2013-05-15 11:11:00,
2013-05-15 05:21:00,44.5,35.7,29.70,NNW,329,0.0,0.0,71,0.00,,---,0.00,VWS V14.01,2013-05-15 11:21:00,
2013-05-15 05:31:00,43.7,36.0,29.72,NNW,329,0.0,0.0,74,0.00,,---,0.00,VWS V14.01,2013-05-15 11:31:00,
2013-05-15 05:41:00,43.1,36.1,29.72,NNW,329,0.0,0.0,76,0.00,,---,0.00,VWS V14.01,2013-05-15 11:41:00,
2013-05-15 05:51:00,44.0,35.9,29.71,NNW,329,0.0,0.0,73,0.00,,---,0.00,VWS V14.01,2013-05-15 11:51:00,
2013-05-15 06:01:00,43.9,35.8,29.72,NNW,329,0.0,0.0,73,0.00,,---,0.00,VWS V14.01,2013-05-15 12:01:00,
2013-05-15 06:21:00,42.6,35.2,29.75,NNW,329,0.0,5.0,75,0.00,,---,0.00,VWS V14.01,2013-05-15 12:21:00,
2013-05-15 06:41:00,42.1,35.1,29.76,NNW,329,0.0,0.0,76,0.00,,---,0.00,VWS V14.01,2013-05-15 12:41:00,
2013-05-15 06:51:00,42.6,35.9,29.76,NNW,329,0.0,0.0,77,0.00,,---,0.00,VWS V14.01,2013-05-15 12:51:00,
2013-05-15 07:01:00,44.1,36.7,29.74,NNW,329,0.0,0.0,75,0.00,,---,0.00,VWS V14.01,2013-05-15 13:01:00,
2013-05-15 07:11:00,46.1,36.9,29.74,NNW,329,2.0,5.0,70,0.00,,---,0.00,VWS V14.01,2013-05-15 13:11:00,
2013-05-15 07:21:00,47.6,37.2,29.72,NNW,329,0.0,2.0,67,0.00,,---,0.00,VWS V14.01,2013-05-15 13:21:00,
2013-05-15 07:31:00,48.9,36.5,29.71,NNW,329,0.0,4.0,62,0.00,,---,0.00,VWS V14.01,2013-05-15 13:31:00,
2013-05-15 07:41:00,50.4,37.5,29.70,NNW,329,0.0,0.0,61,0.00,,---,0.00,VWS V14.01,2013-05-15 13:41:00,
2013-05-15 08:01:00,51.5,37.2,29.68,NNW,327,5.0,7.0,58,0.00,,---,0.00,VWS V14.01,2013-05-15 14:01:00,
2013-05-15 08:11:00,51.8,37.5,29.68,NW,310,6.0,11.0,58,0.00,,---,0.00,VWS V14.01,2013-05-15 14:11:00,
2013-05-15 08:21:00,52.3,38.0,29.68,WNW,300,4.0,10.0,58,0.00,,---,0.00,VWS V14.01,2013-05-15 14:21:00,
2013-05-15 08:31:00,52.9,39.0,29.67,WNW,294,5.0,11.0,59,0.00,,---,0.00,VWS V14.01,2013-05-15 14:31:00,
2013-05-15 08:41:00,54.1,37.8,29.67,WNW,294,0.0,6.0,54,0.00,,---,0.00,VWS V14.01,2013-05-15 14:41:00,
2013-05-15 08:51:00,55.8,38.9,29.65,WNW,292,1.0,10.0,53,0.00,,---,0.00,VWS V14.01,2013-05-15 14:51:00,
2013-05-15 09:01:00,57.1,37.6,29.63,WNW,293,0.0,5.0,48,0.00,,---,0.00,VWS V14.01,2013-05-15 15:01:00,
2013-05-15 09:11:00,59.7,37.8,29.61,WNW,293,0.0,11.0,44,0.00,,---,0.00,VWS V14.01,2013-05-15 15:11:00,
2013-05-15 09:21:00,60.2,37.0,29.61,WNW,293,0.0,4.0,42,0.00,,---,0.00,VWS V14.01,2013-05-15 15:21:00,
2013-05-15 09:31:00,60.9,37.7,29.61,WNW,292,0.0,4.0,42,0.00,,---,0.00,VWS V14.01,2013-05-15 15:31:00,
2013-05-15 09:41:00,61.3,37.4,29.61,WNW,292,0.0,11.0,41,0.00,,---,0.00,VWS V14.01,2013-05-15 15:41:00,
2013-05-15 09:51:00,61.4,36.9,29.60,North,5,4.0,16.0,40,0.00,,---,0.00,VWS V14.01,2013-05-15 15:51:00,
2013-05-15 10:01:00,63.7,38.3,29.57,North,9,14.0,16.0,39,0.00,,---,0.00,VWS V14.01,2013-05-15 16:01:00,
2013-05-15 10:11:00,63.4,36.7,29.60,North,360,12.0,17.0,37,0.00,,---,0.00,VWS V14.01,2013-05-15 16:11:00,
2013-05-15 10:21:00,63.3,35.9,29.60,North,355,12.0,19.0,36,0.00,,---,0.00,VWS V14.01,2013-05-15 16:21:00,
2013-05-15 10:31:00,63.4,36.7,29.60,NNE,17,6.0,17.0,37,0.00,,---,0.00,VWS V14.01,2013-05-15 16:31:00,
2013-05-15 10:41:00,64.8,36.5,29.58,NNE,26,12.0,15.0,35,0.00,,---,0.00,VWS V14.01,2013-05-15 16:41:00,
2013-05-15 10:51:00,65.2,35.4,29.59,ENE,65,0.0,13.0,33,0.00,,---,0.00,VWS V14.01,2013-05-15 16:51:00,
2013-05-15 11:01:00,66.2,35.5,29.57,NNE,28,0.0,7.0,32,0.00,,---,0.00,VWS V14.01,2013-05-15 17:01:00,
2013-05-15 11:11:00,67.0,34.6,29.58,NE,38,0.0,11.0,30,0.00,,---,0.00,VWS V14.01,2013-05-15 17:11:00,
2013-05-15 11:21:00,67.2,33.0,29.57,NNE,17,0.0,9.0,28,0.00,,---,0.00,VWS V14.01,2013-05-15 17:21:00,
2013-05-15 11:41:00,66.5,33.3,29.57,ENE,71,6.0,17.0,29,0.00,,---,0.00,VWS V14.01,2013-05-15 17:41:00,
2013-05-15 11:51:00,66.3,34.0,29.58,NE,42,2.0,14.0,30,0.00,,---,0.00,VWS V14.01,2013-05-15 17:51:00,
2013-05-15 12:01:00,66.5,34.1,29.57,NE,36,0.0,9.0,30,0.00,,---,0.00,VWS V14.01,2013-05-15 18:01:00,
2013-05-15 12:11:00,66.7,34.3,29.56,NNE,15,0.0,12.0,30,0.00,,---,0.00,VWS V14.01,2013-05-15 18:11:00,
2013-05-15 12:21:00,67.2,33.0,29.56,NNE,23,3.0,7.0,28,0.00,,---,0.00,VWS V14.01,2013-05-15 18:21:00,
2013-05-15 12:31:00,66.4,34.0,29.57,West,280,1.0,11.0,30,0.00,,---,0.00,VWS V14.01,2013-05-15 18:31:00,
2013-05-15 12:41:00,64.3,36.1,29.56,West,278,17.0,22.0,35,0.00,,---,0.00,VWS V14.01,2013-05-15 18:41:00,
2013-05-15 12:51:00,62.7,35.4,29.58,West,264,16.0,23.0,36,0.00,,---,0.00,VWS V14.01,2013-05-15 18:51:00,
2013-05-15 13:01:00,63.1,35.0,29.58,WSW,252,2.0,20.0,35,0.00,,---,0.00,VWS V14.01,2013-05-15 19:01:00,
2013-05-15 13:11:00,60.3,36.5,29.63,SW,222,16.0,31.0,41,0.00,,---,0.00,VWS V14.01,2013-05-15 19:11:00,
2013-05-15 13:21:00,58.5,38.4,29.65,SW,234,20.0,23.0,47,0.00,,---,0.00,VWS V14.01,2013-05-15 19:21:00,
2013-05-15 13:41:00,54.6,40.6,29.70,SW,216,10.0,26.0,59,0.01,,---,0.01,VWS V14.01,2013-05-15 19:41:00,
2013-05-15 13:51:00,54.4,41.2,29.71,SW,218,0.0,17.0,61,0.01,,---,0.01,VWS V14.01,2013-05-15 19:51:00,
2013-05-15 14:01:00,53.9,41.6,29.72,SSW,200,0.0,14.0,63,0.02,,---,0.02,VWS V14.01,2013-05-15 20:01:00,
2013-05-15 14:21:00,53.1,41.7,29.76,NE,43,0.0,0.0,65,0.02,,---,0.02,VWS V14.01,2013-05-15 20:21:00,
2013-05-15 14:31:00,52.6,43.8,29.76,NE,42,0.0,0.0,72,0.02,,---,0.02,VWS V14.01,2013-05-15 20:31:00,
2013-05-15 14:41:00,51.7,44.4,29.75,NE,41,5.0,13.0,76,0.02,,---,0.02,VWS V14.01,2013-05-15 20:41:00,
2013-05-15 15:01:00,52.6,44.2,29.75,North,10,11.0,13.0,73,0.01,,---,0.02,VWS V14.01,2013-05-15 21:01:00,
2013-05-15 15:11:00,54.2,44.6,29.73,North,5,10.0,14.0,70,0.00,,---,0.02,VWS V14.01,2013-05-15 21:11:00,
2013-05-15 15:21:00,55.7,42.5,29.71,NNW,336,10.0,13.0,61,0.00,,---,0.02,VWS V14.01,2013-05-15 21:21:00,
2013-05-15 15:31:00,56.9,42.3,29.70,NNW,343,6.0,13.0,58,0.00,,---,0.02,VWS V14.01,2013-05-15 21:31:00,
2013-05-15 15:51:00,58.4,40.4,29.68,North,360,10.0,10.0,51,0.00,,---,0.02,VWS V14.01,2013-05-15 21:51:00,
2013-05-15 16:01:00,58.0,40.5,29.68,NE,41,10.0,12.0,52,0.00,,---,0.02,VWS V14.01,2013-05-15 22:01:00,
2013-05-15 16:11:00,57.5,41.0,29.68,NE,53,0.0,13.0,54,0.00,,---,0.02,VWS V14.01,2013-05-15 22:11:00,
2013-05-15 16:21:00,57.5,40.0,29.68,ENE,57,0.0,0.0,52,0.00,,---,0.02,VWS V14.01,2013-05-15 22:21:00,
2013-05-15 16:31:00,57.8,40.8,29.68,East,90,0.0,5.0,53,0.00,,---,0.02,VWS V14.01,2013-05-15 22:31:00,
2013-05-15 16:41:00,57.8,40.8,29.67,ENE,63,3.0,6.0,53,0.00,,---,0.02,VWS V14.01,2013-05-15 22:41:00,
2013-05-15 16:51:00,57.1,41.1,29.68,East,83,2.0,7.0,55,0.00,,---,0.02,VWS V14.01,2013-05-15 22:51:00,
2013-05-15 17:01:00,56.1,40.6,29.70,East,84,3.0,9.0,56,0.00,,---,0.02,VWS V14.01,2013-05-15 23:01:00,
2013-05-15 17:11:00,55.6,41.5,29.69,ENE,65,2.0,9.0,59,0.00,,---,0.02,VWS V14.01,2013-05-15 23:11:00,
2013-05-15 17:21:00,55.7,42.0,29.69,ENE,76,6.0,10.0,60,0.01,,---,0.03,VWS V14.01,2013-05-15 23:21:00,
2013-05-15 17:31:00,55.3,41.7,29.71,East,86,0.0,8.0,60,0.01,,---,0.03,VWS V14.01,2013-05-15 23:31:00,
2013-05-15 17:41:00,55.2,42.4,29.71,East,86,0.0,5.0,62,0.01,,---,0.03,VWS V14.01,2013-05-15 23:41:00,
2013-05-15 17:51:00,55.2,42.0,29.71,South,179,0.0,0.0,61,0.01,,---,0.03,VWS V14.01,2013-05-15 23:51:00,
2013-05-15 18:01:00,55.2,40.2,29.72,South,179,0.0,0.0,57,0.01,,---,0.03,VWS V14.01,2013-05-16 00:01:00,
2013-05-15 18:11:00,55.1,41.0,29.71,South,179,5.0,7.0,59,0.01,,---,0.03,VWS V14.01,2013-05-16 00:11:00,
2013-05-15 18:21:00,54.3,41.6,29.71,South,190,3.0,11.0,62,0.01,,---,0.03,VWS V14.01,2013-05-16 00:21:00,
2013-05-15 18:31:00,53.7,41.8,29.71,SSW,192,0.0,6.0,64,0.00,,---,0.03,VWS V14.01,2013-05-16 00:31:00,
2013-05-15 18:41:00,53.5,41.6,29.72,SSW,193,0.0,0.0,64,0.00,,---,0.03,VWS V14.01,2013-05-16 00:41:00,
2013-05-15 18:51:00,51.9,38.9,29.76,WSW,255,25.0,27.0,61,0.00,,---,0.03,VWS V14.01,2013-05-16 00:51:00,
2013-05-15 19:01:00,46.9,39.7,29.83,West,277,9.0,25.0,76,0.01,,---,0.04,VWS V14.01,2013-05-16 01:01:00,
2013-05-15 19:11:00,46.5,40.0,29.75,West,265,7.0,19.0,78,0.05,,---,0.08,VWS V14.01,2013-05-16 01:11:00,
2013-05-15 19:21:00,46.7,40.2,29.74,West,272,0.0,13.0,78,0.06,,---,0.09,VWS V14.01,2013-05-16 01:21:00,
2013-05-15 19:31:00,47.6,39.7,29.75,West,273,0.0,0.0,74,0.06,,---,0.09,VWS V14.01,2013-05-16 01:31:00,
2013-05-15 19:41:00,47.4,40.9,29.74,NNW,348,0.0,12.0,78,0.06,,---,0.09,VWS V14.01,2013-05-16 01:41:00,
2013-05-15 20:01:00,46.8,40.6,29.72,NNW,348,0.0,0.0,79,0.06,,---,0.09,VWS V14.01,2013-05-16 02:01:00,
2013-05-15 20:11:00,46.3,42.0,29.69,NNW,348,0.0,0.0,85,0.05,,---,0.09,VWS V14.01,2013-05-16 02:11:00,
2013-05-15 20:21:00,45.7,41.8,29.69,NNW,348,0.0,0.0,86,0.01,,---,0.09,VWS V14.01,2013-05-16 02:21:00,
2013-05-15 20:41:00,44.5,41.2,29.69,NNW,348,0.0,0.0,88,0.00,,---,0.09,VWS V14.01,2013-05-16 02:41:00,
2013-05-15 20:51:00,44.4,41.4,29.70,NNW,348,0.0,0.0,89,0.00,,---,0.09,VWS V14.01,2013-05-16 02:51:00,
2013-05-15 21:01:00,44.4,41.1,29.70,NNW,348,0.0,0.0,88,0.00,,---,0.09,VWS V14.01,2013-05-16 03:01:00,
2013-05-15 21:11:00,44.6,41.0,29.64,NNW,348,0.0,0.0,87,0.00,,---,0.09,VWS V14.01,2013-05-16 03:11:00,
2013-05-15 21:31:00,44.3,41.6,29.66,NNW,348,0.0,0.0,90,0.00,,---,0.09,VWS V14.01,2013-05-16 03:31:00,
2013-05-15 21:41:00,44.5,41.5,29.66,NNW,348,0.0,0.0,89,0.00,,---,0.09,VWS V14.01,2013-05-16 03:41:00,
2013-05-15 21:51:00,44.3,41.3,29.66,NNW,348,0.0,0.0,89,0.00,,---,0.09,VWS V14.01,2013-05-16 03:51:00,
2013-05-15 22:01:00,44.0,40.7,29.66,NNW,348,0.0,0.0,88,0.00,,---,0.09,VWS V14.01,2013-05-16 04:01:00,
2013-05-15 22:11:00,44.0,40.4,29.65,NNW,348,0.0,0.0,87,0.00,,---,0.09,VWS V14.01,2013-05-16 04:11:00,
2013-05-15 22:21:00,43.4,40.1,29.66,NNW,348,0.0,0.0,88,0.00,,---,0.09,VWS V14.01,2013-05-16 04:21:00,
2013-05-15 22:31:00,42.4,39.4,29.66,NNW,348,0.0,0.0,89,0.00,,---,0.09,VWS V14.01,2013-05-16 04:31:00,
2013-05-15 22:41:00,42.0,39.0,29.67,NNW,348,0.0,0.0,89,0.00,,---,0.09,VWS V14.01,2013-05-16 04:41:00,
2013-05-15 22:51:00,42.2,39.5,29.66,NNW,348,0.0,0.0,90,0.00,,---,0.09,VWS V14.01,2013-05-16 04:51:00,
2013-05-15 23:01:00,42.0,39.3,29.66,NNW,348,0.0,0.0,90,0.00,,---,0.09,VWS V14.01,2013-05-16 05:01:00,
2013-05-15 23:11:00,41.8,39.4,29.65,NNW,348,0.0,0.0,91,0.00,,---,0.09,VWS V14.01,2013-05-16 05:11:00,
2013-05-15 23:21:00,41.3,38.9,29.66,NNW,348,0.0,0.0,91,0.00,,---,0.09,VWS V14.01,2013-05-16 05:21:00,
2013-05-15 23:31:00,40.8,38.4,29.65,NNW,348,0.0,0.0,91,0.00,,---,0.09,VWS V14.01,2013-05-16 05:31:00,
2013-05-15 23:41:00,41.1,38.4,29.65,NNW,348,0.0,0.0,90,0.01,,---,0.10,VWS V14.01,2013-05-16 05:41:00,
2013-05-15 23:51:00,40.8,38.1,29.65,NNW,348,0.0,0.0,90,0.01,,---,0.10,VWS V14.01,2013-05-16 05:51:00,